Weather observations for the past three days for
Sawyer County Airport
Metric (Imperial)
Date Time (cdt) Wind (kph) Vis. (km) Weather Sky Cond. Temperature (ºC) Relative Humidity Wind Chill (°C) Heat Index (°C) Pressure Precipitation (cm)
Air Dwpt 6 hour altimeter (cm) sea level (mb) 1 hr 3 hr 6 hr
Max. Min.
07 07:53 W 7 16.09 A Few Clouds FEW055 4.4 -3.9 55% 3 75.92 1013.1
07 06:53 S 6 16.09 Overcast BKN065 OVC080 1.7 -2.8 3.3 1.1 72% 75.92 1013.3
07 05:53 S 6 16.09 Overcast OVC070 1.1 -2.8 76% 75.92 1013.2
07 04:53 S 6 16.09 Overcast OVC075 1.1 -2.8 76% 75.9 1013.0
07 03:53 Calm 16.09 Overcast OVC070 1.1 -3.3 73% 75.9 1013.2
07 02:53 Calm 16.09 Overcast OVC065 2.2 -3.3 67% 75.92 1013.2
07 01:53 S 6 16.09 Overcast OVC060 2.2 -3.9 64% 75.95 1013.8
07 00:53 SW 6 16.09 Overcast OVC055 3.3 -5 5 3.3 55% 75.97 1014.1
06 23:53 SW 9 16.09 Overcast OVC055 3.9 -5 53% 2 76 1014.5
06 22:53 Calm 16.09 Overcast OVC060 3.9 -5.6 50% 76.05 1014.9
06 21:53 SW 7 16.09 Overcast FEW049 OVC060 4.4 -5.6 49% 3 76.05 1015.0
06 20:53 SW 6 16.09 Overcast BKN050 OVC060 5 -6.1 45% 76.02 1014.7
06 19:53 W 11 16.09 Overcast OVC060 5 -6.1 45% 3 76.02 1014.8
06 18:53 Vrbl 7 16.09 Overcast OVC055 5 -5.6 6.1 3.3 47% 4 76.02 1014.9
06 17:53 W 15 16.09 Overcast OVC055 5.6 -5.6 45% 3 76.05 1014.9
06 16:53 Vrbl 11 16.09 Overcast OVC055 6.1 -5.6 43% 4 76.02 1014.7
06 15:53 Vrbl 11 G 28 16.09 Overcast OVC050 5.6 -6.1 43% 3 76.05 1014.9
06 14:53 Calm 16.09 Overcast OVC049 5 -6.7 43% 76.05 1015.1
06 13:53 W 15 16.09 Overcast OVC049 4.4 -6.1 47% 1 76.07 1015.5
06 12:53 W 13 16.09 Overcast OVC042 3.9 -6.1 3.9 1.1 48% 1 76.1 1015.8
06 11:53 NW 15 16.09 Overcast OVC042 3.3 -6.7 48% 0 76.12 1016.0
06 10:53 W 13 16.09 Overcast OVC042 2.8 -7.2 48% -0 76.12 1016.0
06 09:53 W 13 16.09 Overcast OVC043 2.8 -7.2 48% -0 76.07 1015.6
06 08:53 N 13 G 35 16.09 Partly Cloudy SCT041 2.2 -7.8 48% -1 76.07 1015.5
06 07:53 Vrbl 11 16.09 Fair CLR 1.7 -6.7 54% -1 76.07 1015.3
06 06:53 Vrbl 7 16.09 Fair CLR 1.1 -6.7 2.2 0.6 56% -1 76.02 1014.8
06 05:53 W 9 16.09 Overcast OVC047 1.7 -6.7 54% -1 75.97 1013.9
06 04:53 W 6 16.09 Overcast OVC039 1.7 -6.7 54% 75.97 1013.8
06 03:53 Vrbl 7 16.09 Overcast OVC041 1.7 -7.2 52% -0 75.95 1013.6
06 02:53 Vrbl 6 16.09 Overcast OVC040 2.2 -6.7 52% 75.95 1013.6
06 01:53 Vrbl 6 16.09 Overcast OVC041 2.2 -6.1 55% 75.95 1013.5
06 00:53 Calm 16.09 Overcast OVC050 1.7 -6.1 6.7 1.7 57% 75.92 1013.5
05 23:53 NW 7 16.09 A Few Clouds FEW060 2.2 -6.1 55% 0 75.9 1013.1
05 22:53 Vrbl 9 16.09 Overcast OVC060 3.9 -6.1 48% 2 75.9 1012.9
05 21:53 Vrbl 9 16.09 Overcast OVC060 3.9 -6.1 48% 2 75.87 1012.6
05 20:53 Vrbl 9 16.09 Overcast OVC060 5 -6.1 45% 3 75.82 1011.8
05 19:53 Vrbl 7 16.09 Overcast OVC060 5.6 -6.1 43% 4 75.77 1011.2
05 18:53 Vrbl 9 G 31 16.09 Overcast OVC065 6.7 -6.1 8.3 3.9 40% 5 75.72 1010.6
05 17:53 NW 13 16.09 Overcast OVC060 7.8 -6.1 37% 6 75.69 1010.3
05 16:53 W 15 G 33 16.09 Overcast SCT065 OVC090 7.2 -6.7 37% 5 75.67 1010.0
05 15:53 W 17 G 35 16.09 Mostly Cloudy BKN060 7.2 -7.2 35% 5 75.67 1009.9
05 14:53 Calm 16.09 Overcast OVC060 6.7 -6.7 38% 75.69 1010.2
05 13:53 Vrbl 11 G 31 16.09 Overcast BKN050 OVC060 5 -6.7 43% 3 75.69 1010.2
05 12:53 W 15 G 35 16.09 Overcast OVC049 4.4 -7.2 4.4 1.1 43% 1 75.69 1010.3
05 11:53 W 13 G 28 16.09 Overcast OVC045 3.3 -7.2 46% 0 75.69 1010.1
05 10:53 NW 15 G 39 16.09 Overcast BKN040 OVC050 2.8 -7.2 48% -1 75.67 1010.0
05 09:53 W 19 G 35 16.09 Overcast SCT040 OVC070 3.3 -6.7 48% -1 75.59 1008.9
05 08:53 NW 15 G 31 16.09 A Few Clouds FEW033 FEW070 2.8 -6.1 52% -1 75.57 1008.6
05 07:53 NW 11 16.09 Mostly Cloudy BKN029 1.1 -5 64% -2 75.54 1008.1
05 06:53 Vrbl 7 16.09 Fair CLR 1.1 -4.4 5 0.6 67% -1 75.49 1007.3
05 05:53 Vrbl 11 16.09 Mostly Cloudy BKN042 1.1 -5 64% -2 75.44 1006.5
05 04:53 Vrbl 11 16.09 Fair CLR 1.7 -5 61% -1 75.39 1006.0
05 03:53 W 9 16.09 Fair CLR 2.8 -5 57% 1 75.34 1005.1
05 02:53 Vrbl 9 16.09 Fair CLR 3.3 -5.6 52% 1 75.29 1004.4
05 01:53 Vrbl 6 16.09 Fair CLR 4.4 -5.6 49% 75.31 1004.5
05 00:53 W 7 16.09 Fair CLR 5 -5.6 8.9 5 47% 4 75.29 1004.4
04 23:53 Vrbl 9 16.09 Overcast OVC075 6.1 -5.6 43% 4 75.29 1004.0
04 22:53 W 11 16.09 Overcast OVC075 6.1 -5.6 43% 4 75.29 1004.1
04 21:53 Vrbl 7 16.09 Overcast OVC075 6.1 -6.1 42% 5 75.26 1003.9
04 20:53 W 9 16.09 A Few Clouds FEW070 6.1 -6.1 42% 4 75.21 1003.3
04 19:53 NW 13 G 33 16.09 Overcast OVC060 7.2 -4.4 44% 5 75.18 1002.6
04 18:53 NW 15 G 44 16.09 Mostly Cloudy BKN060 8.9 -4.4 14.4 8.9 39% 7 75.08 1001.5
04 17:53 W 22 G 50 16.09 Overcast OVC070 10 -3.9 38% 7 75.03 1000.6
04 16:53 W 20 G 39 16.09 Mostly Cloudy BKN065 11.1 -3.3 37% 74.96 999.6
04 15:53 W 24 G 46 16.09 Mostly Cloudy BKN065 11.7 -3.9 34% 74.9 998.9
04 14:53 W 20 G 56 16.09 Fair CLR 12.8 -3.9 31% 74.83 997.9
04 13:53 NW 22 G 43 16.09 Partly Cloudy SCT065 14.4 -0.6 36% 74.73 996.4
04 12:53 NW 22 G 44 16.09 Mostly Cloudy BKN060 BKN070 13.9 0.6 15.6 12.8 41% 74.7 995.9
04 11:53 W 15 G 41 16.09 Mostly Cloudy BKN055 14.4 0.6 39% 74.68 995.9
04 10:53 NW 15 16.09 Mostly Cloudy FEW049 BKN110 13.9 2.2 45% 74.65 995.6
04 09:53 W 15 G 31 16.09 Overcast FEW049 OVC100 12.8 1.7 47% 74.6 994.8
04 08:53 W 19 G 31 16.09 Mostly Cloudy SCT100 BKN120 13.9 3.3 49% 74.52 993.8
Date Time (cdt) Wind (kph) Vis. (km) Weather Sky Cond. Air Dwpt Max. Min. Relative Humidity Wind Chill (°C) Heat Index (°C) altimeter (cm) sea level (mb) 1 hr 3 hr 6 hr
6 hour
Temperature (ºC) Pressure Precipitation (cm)